Time;durP1;ratioP1;P1;durP2;ratioP2;P2;SDS_P1;SDS_P2;PMS_P1;PMS_P2;Temp;Humidity;BMP_temperature;BMP_pressure;BME280_temperature;BME280_humidity;BME280_pressure;Samples;Min_cycle;Max_cycle;Signal;HPM_P1;HPM_P2
2022/10/14 00:01:22;;;;;;;5.32;2.78;;;10.20;99.90;;;;;;5045575;28;20132;-74
2022/10/14 00:03:48;;;;;;;3.63;1.90;;;10.20;99.90;;;;;;5026706;28;20049;-75
2022/10/14 00:06:17;;;;;;;10.38;4.93;;;10.10;99.90;;;;;;5027740;28;20055;-73
2022/10/14 00:08:44;;;;;;;5.35;3.22;;;10.10;99.90;;;;;;5043841;28;20045;-74
2022/10/14 00:11:12;;;;;;;8.68;3.97;;;10.00;99.90;;;;;;5045021;28;20041;-73
2022/10/14 00:13:39;;;;;;;9.85;4.75;;;10.00;99.90;;;;;;5044952;28;20049;-73
2022/10/14 00:16:06;;;;;;;12.60;5.50;;;10.00;99.90;;;;;;5044614;28;20495;-74
2022/10/14 00:18:32;;;;;;;12.77;5.70;;;10.00;99.90;;;;;;5044943;28;20051;-75
2022/10/14 00:21:00;;;;;;;12.73;4.70;;;9.90;99.90;;;;;;5045193;28;20515;-74
2022/10/14 00:23:26;;;;;;;2.85;1.85;;;9.90;99.90;;;;;;5044006;28;20063;-74
2022/10/14 00:25:53;;;;;;;30.25;10.05;;;9.90;99.90;;;;;;5058831;28;20087;-74
2022/10/14 00:28:19;;;;;;;8.52;4.05;;;9.90;99.90;;;;;;5059127;28;20028;-74
2022/10/14 00:30:58;;;;;;;13.98;5.53;;;9.80;99.90;;;;;;5026930;28;20514;-73
2022/10/14 00:33:24;;;;;;;10.45;4.40;;;9.80;99.90;;;;;;5027045;28;20103;-74
2022/10/14 00:35:54;;;;;;;19.85;7.18;;;9.80;99.90;;;;;;5044427;28;20055;-74
2022/10/14 00:38:20;;;;;;;4.97;2.85;;;9.80;99.90;;;;;;5044188;28;20041;-74
2022/10/14 00:40:45;;;;;;;19.55;7.10;;;9.80;99.90;;;;;;5043813;28;20048;-73
2022/10/14 00:43:13;;;;;;;11.73;5.10;;;9.80;99.90;;;;;;5044279;28;20373;-74
2022/10/14 00:45:38;;;;;;;5.75;3.33;;;9.80;99.90;;;;;;5044274;28;20037;-74
2022/10/14 00:48:05;;;;;;;27.08;8.85;;;9.80;99.90;;;;;;5044432;28;20114;-73
2022/10/14 00:50:31;;;;;;;8.52;4.00;;;9.80;99.90;;;;;;5026686;28;20049;-75
2022/10/14 00:52:57;;;;;;;5.15;2.65;;;9.70;99.90;;;;;;5044772;28;20037;-73
2022/10/14 00:55:24;;;;;;;4.85;2.38;;;9.70;99.90;;;;;;5025581;28;20041;-73
2022/10/14 00:57:50;;;;;;;10.13;4.75;;;9.70;99.90;;;;;;5044314;28;20094;-74
2022/10/14 01:00:18;;;;;;;13.77;5.40;;;9.60;99.90;;;;;;5044024;28;20487;-74
2022/10/14 01:02:44;;;;;;;6.78;3.70;;;9.60;99.90;;;;;;5043807;28;20685;-73
2022/10/14 01:05:13;;;;;;;19.05;6.90;;;9.60;99.90;;;;;;5044289;28;20106;-73
2022/10/14 01:08:01;;;;;;;15.93;5.10;;;9.60;99.90;;;;;;5043571;28;20965;-73
2022/10/14 01:11:09;;;;;;;13.70;5.10;;;9.60;99.90;;;;;;5043289;28;20135;-74
2022/10/14 01:16:37;;;;;;;5.10;2.85;;;9.60;99.90;;;;;;5043137;26;20521;-74
2022/10/14 01:19:28;;;;;;;16.30;7.30;;;9.50;99.90;;;;;;5025729;28;20048;-75
2022/10/14 01:22:15;;;;;;;22.23;9.18;;;9.60;99.90;;;;;;5043386;28;20064;-74
2022/10/14 01:24:48;;;;;;;11.52;4.70;;;9.60;99.90;;;;;;5047228;28;20045;-75
2022/10/14 01:27:49;;;;;;;3.53;2.90;;;9.60;99.90;;;;;;5063668;28;20055;-75
2022/10/14 01:30:20;;;;;;;5.03;3.10;;;9.60;99.90;;;;;;5032199;28;20052;-75
2022/10/14 01:33:21;;;;;;;22.73;9.98;;;9.60;99.90;;;;;;5044996;28;20045;-75
2022/10/14 01:36:01;;;;;;;9.70;5.07;;;9.60;99.90;;;;;;5046116;28;20040;-74
2022/10/14 01:38:37;;;;;;;7.50;4.10;;;9.70;99.90;;;;;;5042873;28;20043;-74
2022/10/14 01:41:08;;;;;;;10.27;4.90;;;9.60;99.90;;;;;;5024623;28;20048;-75
2022/10/14 01:43:35;;;;;;;3.65;2.88;;;9.60;99.90;;;;;;5063603;28;20131;-74
2022/10/14 01:46:05;;;;;;;6.47;3.60;;;9.60;99.90;;;;;;5046008;28;20056;-74
2022/10/14 01:48:35;;;;;;;23.77;9.65;;;9.60;99.90;;;;;;5046236;28;20756;-74
2022/10/14 01:51:05;;;;;;;12.02;4.57;;;9.60;99.90;;;;;;5027643;28;20049;-74
2022/10/14 01:53:42;;;;;;;13.63;5.40;;;9.60;99.90;;;;;;5045334;28;20394;-74
2022/10/14 01:56:10;;;;;;;3.53;2.45;;;9.60;99.90;;;;;;5045232;28;20040;-74
2022/10/14 01:58:38;;;;;;;10.95;4.72;;;9.60;99.90;;;;;;5063343;28;20045;-75
2022/10/14 02:01:05;;;;;;;7.47;4.38;;;9.60;99.90;;;;;;5061448;28;20105;-74
2022/10/14 02:03:42;;;;;;;4.85;3.10;;;9.60;99.90;;;;;;5044352;28;20539;-74
2022/10/14 02:06:23;;;;;;;14.20;6.53;;;9.60;99.90;;;;;;5043695;28;20044;-75
2022/10/14 02:09:25;;;;;;;5.22;3.47;;;9.60;99.90;;;;;;5051026;28;20486;-75
2022/10/14 02:12:10;;;;;;;10.03;4.47;;;9.60;99.90;;;;;;5025190;28;20694;-74
2022/10/14 02:14:50;;;;;;;5.90;3.97;;;9.60;99.90;;;;;;5024831;28;21095;-75
2022/10/14 02:17:31;;;;;;;8.38;4.63;;;9.60;99.90;;;;;;5025529;28;20099;-74
2022/10/14 02:20:09;;;;;;;10.13;5.05;;;9.60;99.90;;;;;;5043603;28;20052;-74
2022/10/14 02:22:42;;;;;;;11.95;6.20;;;9.60;99.90;;;;;;5042941;28;20522;-74
2022/10/14 02:25:27;;;;;;;;;;;9.60;99.90;;;;;;5051223;28;20082;-75
2022/10/14 02:27:53;;;;;;;7.15;4.35;;;9.60;99.90;;;;;;5061969;28;20044;-75
2022/10/14 02:30:20;;;;;;;5.32;3.40;;;9.60;99.90;;;;;;5063140;28;20066;-74
2022/10/14 02:32:47;;;;;;;11.50;5.88;;;9.60;99.90;;;;;;5032318;28;20045;-75
2022/10/14 02:35:16;;;;;;;12.35;3.97;;;9.60;99.90;;;;;;5025340;28;20083;-75
2022/10/14 02:37:44;;;;;;;7.68;4.35;;;9.60;99.90;;;;;;5055884;28;20041;-74
2022/10/14 02:40:15;;;;;;;8.40;5.60;;;9.60;99.90;;;;;;5061571;28;20119;-74
2022/10/14 02:42:40;;;;;;;8.57;5.00;;;9.70;99.90;;;;;;5062851;28;20522;-75
2022/10/14 02:45:08;;;;;;;10.20;6.05;;;9.60;99.90;;;;;;5066160;28;20041;-74
2022/10/14 02:47:33;;;;;;;7.18;4.75;;;9.70;99.90;;;;;;5048262;28;20063;-75
2022/10/14 02:49:59;;;;;;;6.95;4.25;;;9.70;99.90;;;;;;5067308;28;20483;-75
2022/10/14 02:52:25;;;;;;;15.50;8.25;;;9.60;99.90;;;;;;5049209;28;20511;-75
2022/10/14 02:54:50;;;;;;;25.60;10.10;;;9.70;99.90;;;;;;5047589;28;20047;-74
2022/10/14 02:57:16;;;;;;;6.65;4.53;;;9.70;99.90;;;;;;5048899;28;20098;-75
2022/10/14 02:59:41;;;;;;;11.07;6.03;;;9.70;99.90;;;;;;5066301;28;20043;-75
2022/10/14 03:02:07;;;;;;;11.15;5.10;;;9.70;99.90;;;;;;5056323;28;20461;-75
2022/10/14 03:04:33;;;;;;;7.07;5.55;;;9.70;99.90;;;;;;5046713;28;20044;-75
2022/10/14 03:06:59;;;;;;;11.23;7.43;;;9.70;99.90;;;;;;5053746;28;20543;-74
2022/10/14 03:09:24;;;;;;;20.77;8.32;;;9.70;99.90;;;;;;5062559;28;20057;-74
2022/10/14 03:11:50;;;;;;;10.13;6.38;;;9.70;99.90;;;;;;5046403;28;20487;-74
2022/10/14 03:14:16;;;;;;;10.25;5.93;;;9.70;99.90;;;;;;5046143;28;20068;-75
2022/10/14 03:16:41;;;;;;;17.77;9.05;;;9.70;99.90;;;;;;5045970;28;20033;-74
2022/10/14 03:19:07;;;;;;;8.27;6.30;;;9.70;99.90;;;;;;5046560;28;20048;-75
2022/10/14 03:21:32;;;;;;;24.10;9.85;;;9.70;99.90;;;;;;5028174;28;20442;-75
2022/10/14 03:24:00;;;;;;;25.60;11.00;;;9.70;99.90;;;;;;5045721;28;20033;-74
2022/10/14 03:26:26;;;;;;;8.50;5.95;;;9.70;99.90;;;;;;5064818;28;20053;-74
2022/10/14 03:28:51;;;;;;;14.32;7.80;;;9.70;99.90;;;;;;5063872;28;20391;-74
2022/10/14 03:31:17;;;;;;;22.88;9.90;;;9.70;99.90;;;;;;5045942;28;20095;-75
2022/10/14 03:33:42;;;;;;;14.05;8.18;;;9.80;99.90;;;;;;5048480;28;20040;-74
2022/10/14 03:36:08;;;;;;;28.25;12.25;;;9.80;99.90;;;;;;5065973;28;20723;-75
2022/10/14 03:38:34;;;;;;;44.20;15.63;;;9.80;99.90;;;;;;5064815;28;20045;-74
2022/10/14 03:40:59;;;;;;;11.23;7.32;;;9.80;99.90;;;;;;5065751;28;20044;-75
2022/10/14 03:43:25;;;;;;;20.63;11.98;;;9.80;99.90;;;;;;5065286;28;20037;-74
2022/10/14 03:45:50;;;;;;;48.55;17.55;;;9.90;99.90;;;;;;5047413;28;20037;-75
2022/10/14 03:48:16;;;;;;;32.97;13.90;;;9.90;99.90;;;;;;5047865;28;20063;-74
2022/10/14 03:50:42;;;;;;;32.33;14.68;;;9.90;99.90;;;;;;5027795;28;20065;-75
2022/10/14 03:53:07;;;;;;;26.35;13.63;;;9.90;99.90;;;;;;5026907;28;20053;-75
2022/10/14 03:55:33;;;;;;;41.13;19.58;;;9.90;99.90;;;;;;5044706;28;20564;-74
2022/10/14 03:57:58;;;;;;;39.13;16.98;;;10.00;99.90;;;;;;5045806;28;20471;-74
2022/10/14 04:00:24;;;;;;;40.45;14.20;;;10.00;99.90;;;;;;5027474;28;20124;-75
2022/10/14 04:02:49;;;;;;;18.83;9.95;;;10.00;99.90;;;;;;5045414;28;20049;-74
2022/10/14 04:05:15;;;;;;;28.95;16.25;;;10.00;99.90;;;;;;5049757;28;20044;-75
2022/10/14 04:07:40;;;;;;;31.02;14.38;;;10.10;99.90;;;;;;5045219;28;20546;-75
2022/10/14 04:10:07;;;;;;;22.92;11.23;;;10.10;99.90;;;;;;5044163;28;20060;-75
2022/10/14 04:12:32;;;;;;;26.77;13.50;;;10.10;99.90;;;;;;5027131;28;20491;-74
2022/10/14 04:14:58;;;;;;;37.67;15.77;;;10.20;99.90;;;;;;5045238;28;20064;-75
2022/10/14 04:17:24;;;;;;;25.95;12.27;;;10.20;99.90;;;;;;5045246;28;20057;-75
2022/10/14 04:19:50;;;;;;;19.40;8.85;;;10.30;99.90;;;;;;5044872;28;20060;-75
2022/10/14 04:22:16;;;;;;;20.42;9.23;;;10.30;99.90;;;;;;5027205;28;20053;-75
2022/10/14 04:24:41;;;;;;;32.00;13.25;;;10.30;99.90;;;;;;5030689;28;20074;-74
2022/10/14 04:27:07;;;;;;;35.70;11.88;;;10.40;99.90;;;;;;5064851;28;20043;-75
2022/10/14 04:29:32;;;;;;;26.20;11.85;;;10.40;99.90;;;;;;5064684;28;20453;-75
2022/10/14 04:31:58;;;;;;;28.27;13.38;;;10.40;99.90;;;;;;5053844;28;20047;-75
2022/10/14 04:34:24;;;;;;;23.27;13.25;;;10.40;99.90;;;;;;5044984;28;20045;-75
2022/10/14 04:36:51;;;;;;;24.58;11.48;;;10.40;99.90;;;;;;5026894;28;20076;-75
2022/10/14 04:39:17;;;;;;;42.78;13.93;;;10.40;99.90;;;;;;5025991;28;20059;-74
2022/10/14 04:41:42;;;;;;;24.73;12.65;;;10.40;99.90;;;;;;5044611;28;20037;-74
2022/10/14 04:44:08;;;;;;;37.78;15.02;;;10.40;99.90;;;;;;5014718;28;20478;-74
2022/10/14 04:46:34;;;;;;;36.42;14.20;;;10.40;99.90;;;;;;5056125;28;20514;-75
2022/10/14 04:48:59;;;;;;;31.08;12.85;;;10.40;99.90;;;;;;5027191;28;20122;-74
2022/10/14 04:51:25;;;;;;;40.08;13.95;;;10.40;99.90;;;;;;5044394;28;20047;-74
2022/10/14 04:53:50;;;;;;;24.98;10.60;;;10.40;99.90;;;;;;5043245;28;20041;-74
2022/10/14 04:56:16;;;;;;;24.35;9.57;;;10.40;99.90;;;;;;5044321;28;20045;-74
2022/10/14 04:58:41;;;;;;;21.90;9.35;;;10.40;99.90;;;;;;5044159;28;20526;-74
2022/10/14 05:01:07;;;;;;;28.95;10.23;;;10.40;99.90;;;;;;5044581;28;20139;-75
2022/10/14 05:03:34;;;;;;;20.27;8.27;;;10.40;99.90;;;;;;5061790;28;20653;-74
2022/10/14 05:05:59;;;;;;;18.13;9.45;;;10.30;99.90;;;;;;5043789;28;20136;-74
2022/10/14 05:08:25;;;;;;;23.65;9.38;;;10.30;99.90;;;;;;5025504;28;20041;-75
2022/10/14 05:10:50;;;;;;;12.35;6.65;;;10.30;99.90;;;;;;5046049;28;20041;-75
2022/10/14 05:13:17;;;;;;;19.35;7.43;;;10.30;99.90;;;;;;5063470;28;20537;-75
2022/10/14 05:15:42;;;;;;;15.70;6.57;;;10.30;99.90;;;;;;5045377;28;20294;-75
2022/10/14 05:18:10;;;;;;;35.47;12.45;;;10.20;99.90;;;;;;5055068;28;20098;-75
2022/10/14 05:20:37;;;;;;;17.27;8.05;;;10.20;99.90;;;;;;5011607;28;20375;-75
2022/10/14 05:23:03;;;;;;;26.10;10.57;;;10.20;99.90;;;;;;5036610;28;20044;-75
2022/10/14 05:25:29;;;;;;;16.73;8.32;;;10.20;99.90;;;;;;5044425;28;20045;-75
2022/10/14 05:27:54;;;;;;;10.93;6.85;;;10.20;99.90;;;;;;5026090;28;20053;-75
2022/10/14 05:30:20;;;;;;;14.52;7.07;;;10.20;99.90;;;;;;5060279;28;20048;-80
2022/10/14 05:32:45;;;;;;;10.98;7.90;;;10.20;99.90;;;;;;5045426;28;20128;-76
2022/10/14 05:35:11;;;;;;;20.98;9.20;;;10.20;99.90;;;;;;5016611;28;20056;-75
2022/10/14 05:37:37;;;;;;;32.28;12.35;;;10.20;99.90;;;;;;5044893;28;20044;-75
2022/10/14 05:40:03;;;;;;;19.40;8.65;;;10.20;99.90;;;;;;5053797;28;20398;-75
2022/10/14 05:42:28;;;;;;;18.98;8.60;;;10.20;99.90;;;;;;5053423;28;20068;-75
2022/10/14 05:44:54;;;;;;;33.20;12.20;;;10.20;99.90;;;;;;5061727;28;20083;-75
2022/10/14 05:47:20;;;;;;;32.75;12.75;;;10.20;99.90;;;;;;5032262;28;20041;-75
2022/10/14 05:49:45;;;;;;;19.73;9.27;;;10.20;99.90;;;;;;5027880;28;20490;-74
2022/10/14 05:52:11;;;;;;;15.20;8.32;;;10.20;99.90;;;;;;5035651;28;20111;-75
2022/10/14 05:54:36;;;;;;;14.50;8.73;;;10.20;99.90;;;;;;5061993;28;20404;-75
2022/10/14 05:57:02;;;;;;;26.58;11.95;;;10.30;99.90;;;;;;5062706;28;20040;-75
2022/10/14 05:59:28;;;;;;;27.67;10.75;;;10.30;99.90;;;;;;5040095;28;20201;-75
2022/10/14 06:01:55;;;;;;;17.27;10.52;;;10.30;99.90;;;;;;5056613;28;20041;-75
2022/10/14 06:04:21;;;;;;;27.35;11.70;;;10.30;99.90;;;;;;5043513;28;20438;-74
2022/10/14 06:06:47;;;;;;;27.33;12.52;;;10.30;99.90;;;;;;5052246;28;20040;-75
2022/10/14 06:09:13;;;;;;;18.13;11.05;;;10.30;99.90;;;;;;5034458;28;20089;-76
2022/10/14 06:11:39;;;;;;;46.75;16.42;;;10.30;99.90;;;;;;5050908;28;20110;-74
2022/10/14 06:14:04;;;;;;;31.60;15.40;;;10.30;99.90;;;;;;5026964;28;20483;-73
2022/10/14 06:16:30;;;;;;;33.60;16.45;;;10.30;99.90;;;;;;5044889;28;20041;-74
2022/10/14 06:18:56;;;;;;;40.03;15.90;;;10.30;99.90;;;;;;5049792;28;20029;-72
2022/10/14 06:21:21;;;;;;;45.60;19.58;;;10.30;99.90;;;;;;5027345;28;20083;-73
2022/10/14 06:23:47;;;;;;;72.13;25.27;;;10.30;99.90;;;;;;5045607;28;20610;-72
2022/10/14 06:26:12;;;;;;;44.80;20.35;;;10.30;99.90;;;;;;5029118;28;20115;-73
2022/10/14 06:28:38;;;;;;;47.63;21.85;;;10.30;99.90;;;;;;5048290;28;20037;-72
2022/10/14 06:31:04;;;;;;;36.80;15.80;;;10.30;99.90;;;;;;5048890;28;20041;-73
2022/10/14 06:33:30;;;;;;;42.22;21.30;;;10.40;99.90;;;;;;5065186;28;20047;-73
2022/10/14 06:35:56;;;;;;;34.50;19.42;;;10.40;99.90;;;;;;5053746;28;20037;-73
2022/10/14 06:38:22;;;;;;;40.60;20.85;;;10.40;99.90;;;;;;5016345;28;20059;-73
2022/10/14 06:40:51;;;;;;;39.17;20.80;;;10.40;99.90;;;;;;5053267;28;20040;-72
2022/10/14 06:43:17;;;;;;;49.38;21.73;;;10.40;99.90;;;;;;5044588;28;20074;-73
2022/10/14 06:45:43;;;;;;;45.10;23.60;;;10.40;99.90;;;;;;5053101;28;20044;-73
2022/10/14 06:48:09;;;;;;;44.28;21.50;;;10.40;99.90;;;;;;5058832;28;20037;-73
2022/10/14 06:50:35;;;;;;;60.45;25.83;;;10.40;99.90;;;;;;5053438;28;20048;-74
2022/10/14 06:53:01;;;;;;;49.28;21.15;;;10.50;99.90;;;;;;5044458;28;20044;-74
2022/10/14 06:55:27;;;;;;;52.35;21.20;;;10.50;99.90;;;;;;5053570;28;20037;-74
2022/10/14 06:57:53;;;;;;;37.75;19.70;;;10.50;99.90;;;;;;5042921;28;20467;-73
2022/10/14 07:00:19;;;;;;;41.40;21.38;;;10.50;99.90;;;;;;5052287;28;20033;-75
2022/10/14 07:02:45;;;;;;;33.30;18.95;;;10.50;99.90;;;;;;5032942;28;20049;-76
2022/10/14 07:05:11;;;;;;;51.63;22.75;;;10.50;99.90;;;;;;5025725;28;20048;-75
2022/10/14 07:07:36;;;;;;;34.55;19.08;;;10.50;99.90;;;;;;5040958;28;20471;-75
2022/10/14 07:10:02;;;;;;;30.88;17.73;;;10.60;99.90;;;;;;5034229;28;20094;-75
2022/10/14 07:12:28;;;;;;;34.08;16.50;;;10.50;99.90;;;;;;5048509;28;20049;-76
2022/10/14 07:14:54;;;;;;;28.00;15.27;;;10.50;99.90;;;;;;5033728;28;20041;-76
2022/10/14 07:17:19;;;;;;;30.42;17.10;;;10.60;99.90;;;;;;5055141;28;20503;-76
2022/10/14 07:19:45;;;;;;;22.92;14.65;;;10.60;99.90;;;;;;5044716;28;20033;-77
2022/10/14 07:22:10;;;;;;;28.40;16.45;;;10.50;99.90;;;;;;5028889;28;20044;-78
2022/10/14 07:24:36;;;;;;;23.33;13.93;;;10.50;99.90;;;;;;5028071;28;20044;-77
2022/10/14 07:27:02;;;;;;;25.67;13.63;;;10.60;99.90;;;;;;5029150;28;20729;-76
2022/10/14 07:29:28;;;;;;;27.98;16.08;;;10.60;99.90;;;;;;5055851;28;20041;-77
2022/10/14 07:31:53;;;;;;;29.48;15.23;;;10.60;99.90;;;;;;5059625;28;20440;-75
2022/10/14 07:34:19;;;;;;;29.83;15.45;;;10.60;99.90;;;;;;5051434;28;20052;-73
2022/10/14 07:36:45;;;;;;;28.23;13.55;;;10.60;99.90;;;;;;5050727;28;20045;-74
2022/10/14 07:39:10;;;;;;;23.63;13.63;;;10.60;99.90;;;;;;5027325;28;20184;-74
2022/10/14 07:41:37;;;;;;;30.23;16.08;;;10.60;99.90;;;;;;5053372;28;20071;-74
2022/10/14 07:44:07;;;;;;;24.40;15.27;;;10.60;99.90;;;;;;5056577;28;20063;-75
2022/10/14 07:46:35;;;;;;;28.05;15.10;;;10.60;99.90;;;;;;5053107;28;20044;-74
2022/10/14 07:49:07;;;;;;;25.38;13.88;;;10.60;99.90;;;;;;5050360;28;20057;-74
2022/10/14 07:51:34;;;;;;;28.40;15.70;;;10.70;99.90;;;;;;5039351;28;20162;-75
2022/10/14 07:54:01;;;;;;;21.52;12.57;;;10.70;99.90;;;;;;5055717;28;20083;-72
2022/10/14 07:56:27;;;;;;;20.20;11.60;;;10.70;99.90;;;;;;5045802;28;20045;-75
2022/10/14 07:58:54;;;;;;;22.20;12.38;;;10.70;99.90;;;;;;5057109;28;20037;-74
2022/10/14 08:01:19;;;;;;;22.90;13.18;;;10.70;99.90;;;;;;5045161;28;20044;-76
2022/10/14 08:03:46;;;;;;;20.38;12.93;;;10.70;99.90;;;;;;5029560;28;20053;-74
2022/10/14 08:06:12;;;;;;;20.38;12.90;;;10.70;99.90;;;;;;5051159;28;20048;-74
2022/10/14 08:08:38;;;;;;;16.23;12.60;;;10.80;99.90;;;;;;5054586;28;20045;-75
2022/10/14 08:11:14;;;;;;;25.13;12.65;;;10.80;99.90;;;;;;5038112;28;20639;-73
2022/10/14 08:13:40;;;;;;;24.55;13.60;;;10.80;99.90;;;;;;5042837;28;20037;-75
2022/10/14 08:16:17;;;;;;;22.05;13.15;;;10.80;99.90;;;;;;5051422;28;20056;-76
2022/10/14 08:18:44;;;;;;;27.75;15.65;;;10.90;99.90;;;;;;5051857;28;20116;-74
2022/10/14 08:21:10;;;;;;;22.50;13.82;;;10.90;99.90;;;;;;5047055;28;20041;-74
2022/10/14 08:23:35;;;;;;;27.27;14.00;;;11.00;99.90;;;;;;5054733;28;20055;-74
2022/10/14 08:26:01;;;;;;;20.92;14.60;;;11.00;99.90;;;;;;5049719;28;20041;-76
2022/10/14 08:28:27;;;;;;;26.85;15.13;;;11.00;99.90;;;;;;5036722;28;20094;-74
2022/10/14 08:30:52;;;;;;;20.27;13.63;;;11.10;99.90;;;;;;5049938;28;20087;-75
2022/10/14 08:33:18;;;;;;;24.52;15.30;;;11.10;99.90;;;;;;5037947;28;20450;-75
2022/10/14 08:35:44;;;;;;;27.38;15.55;;;11.10;99.90;;;;;;5021270;28;20033;-74
2022/10/14 08:38:23;;;;;;;30.65;16.40;;;11.10;99.90;;;;;;5061540;28;20090;-75
2022/10/14 08:41:12;;;;;;;30.13;13.80;;;11.10;99.90;;;;;;5037250;28;20159;-74
2022/10/14 08:44:21;;;;;;;29.38;16.88;;;11.10;99.90;;;;;;5022210;28;20524;-77
2022/10/14 08:46:55;;;;;;;32.65;15.27;;;11.10;99.90;;;;;;5007082;28;20044;-75
2022/10/14 08:49:36;;;;;;;27.38;15.40;;;11.20;99.90;;;;;;5035914;28;20131;-76
2022/10/14 08:52:09;;;;;;;30.83;17.40;;;11.20;99.90;;;;;;5053090;28;20041;-78
2022/10/14 08:54:39;;;;;;;31.65;18.60;;;11.20;99.90;;;;;;5044584;28;20036;-78
2022/10/14 08:57:14;;;;;;;30.00;15.95;;;11.20;99.90;;;;;;5051350;28;20514;-79
2022/10/14 08:59:40;;;;;;;35.53;18.95;;;11.30;99.90;;;;;;5046746;28;20049;-78
2022/10/14 09:02:15;;;;;;;33.30;16.33;;;11.30;99.90;;;;;;5032325;28;20097;-78
2022/10/14 09:04:40;;;;;;;33.17;20.08;;;11.30;99.90;;;;;;5042943;28;20080;-78
2022/10/14 09:07:14;;;;;;;29.75;16.40;;;11.30;99.90;;;;;;5060734;28;20076;-79
2022/10/14 09:09:43;;;;;;;36.58;19.23;;;11.40;99.90;;;;;;5049852;28;20029;-76
2022/10/14 09:12:16;;;;;;;34.05;18.05;;;11.40;99.90;;;;;;5049478;28;20040;-78
2022/10/14 09:14:46;;;;;;;28.95;16.38;;;11.40;99.90;;;;;;5050321;28;20474;-78
2022/10/14 09:17:20;;;;;;;39.47;19.75;;;11.40;99.90;;;;;;5038298;28;20044;-77
2022/10/14 09:19:53;;;;;;;32.75;17.70;;;11.50;99.90;;;;;;5025683;28;20063;-78
2022/10/14 09:22:19;;;;;;;27.48;16.98;;;11.50;99.90;;;;;;5047249;28;20049;-78
2022/10/14 09:24:47;;;;;;;26.85;17.60;;;11.50;99.90;;;;;;5055599;28;20036;-76
2022/10/14 09:27:20;;;;;;;36.78;19.63;;;11.50;99.90;;;;;;5042381;28;20144;-78
2022/10/14 09:29:58;;;;;;;32.42;16.98;;;11.60;99.90;;;;;;5017687;28;20491;-81
2022/10/14 09:32:29;;;;;;;29.65;17.23;;;11.60;99.90;;;;;;5033239;28;20563;-78
2022/10/14 09:34:56;;;;;;;30.80;18.38;;;11.60;99.90;;;;;;5036760;28;20110;-78
2022/10/14 09:37:33;;;;;;;33.90;18.48;;;11.60;99.90;;;;;;5034128;28;20039;-77
2022/10/14 09:40:07;;;;;;;33.50;17.92;;;11.60;99.90;;;;;;5052002;28;20051;-78
2022/10/14 09:42:58;;;;;;;38.70;19.00;;;11.70;99.90;;;;;;5017694;28;20117;-76
2022/10/14 09:45:25;;;;;;;37.05;18.38;;;11.70;99.90;;;;;;5008779;28;20115;-77
2022/10/14 09:47:58;;;;;;;38.47;18.10;;;11.70;99.90;;;;;;5050381;28;20119;-77
2022/10/14 09:50:28;;;;;;;38.17;18.27;;;11.70;99.90;;;;;;5028962;28;20052;-79
2022/10/14 09:53:01;;;;;;;40.38;19.83;;;11.80;99.90;;;;;;5059841;28;20032;-78
2022/10/14 09:55:27;;;;;;;38.70;18.92;;;11.80;99.90;;;;;;5041610;28;20045;-76
2022/10/14 09:58:17;;;;;;;35.53;19.13;;;11.80;99.90;;;;;;5041533;28;20036;-78
2022/10/14 10:00:44;;;;;;;35.53;17.33;;;11.80;99.90;;;;;;5034841;28;20289;-78
2022/10/14 10:03:33;;;;;;;44.60;19.73;;;11.90;99.90;;;;;;5043407;28;20088;-78
2022/10/14 10:06:11;;;;;;;45.22;21.60;;;11.90;99.90;;;;;;5059112;28;20044;-77
2022/10/14 10:08:53;;;;;;;39.63;18.50;;;11.90;99.90;;;;;;5055685;28;20418;-76
2022/10/14 10:11:37;;;;;;;38.92;17.25;;;12.00;99.90;;;;;;5027122;28;20052;-76
2022/10/14 10:14:24;;;;;;;39.35;19.42;;;12.00;99.90;;;;;;5061922;28;20039;-77
2022/10/14 10:17:10;;;;;;;33.70;18.23;;;12.00;99.90;;;;;;5054925;28;20080;-78
2022/10/14 10:19:43;;;;;;;30.92;17.92;;;12.00;99.90;;;;;;5043019;28;20087;-78
2022/10/14 10:22:25;;;;;;;33.28;18.45;;;12.10;99.90;;;;;;5033760;28;20119;-78
2022/10/14 10:24:59;;;;;;;38.90;17.23;;;12.10;99.90;;;;;;5035461;28;20043;-77
2022/10/14 10:27:36;;;;;;;32.58;15.23;;;12.10;99.90;;;;;;5041503;28;20053;-77
2022/10/14 10:30:20;;;;;;;30.35;16.88;;;12.10;99.90;;;;;;5016434;28;20045;-75
2022/10/14 10:32:46;;;;;;;22.77;12.40;;;12.10;99.90;;;;;;5055484;28;20036;-78
2022/10/14 10:35:36;;;;;;;26.30;14.15;;;12.20;99.90;;;;;;5040050;28;20045;-79
2022/10/14 10:38:21;;;;;;;25.73;13.93;;;12.20;99.90;;;;;;5034762;28;20051;-78
2022/10/14 10:41:22;;;;;;;33.63;15.20;;;12.20;99.90;;;;;;5053912;28;20090;-77
2022/10/14 10:44:18;;;;;;;27.27;12.98;;;12.30;99.90;;;;;;5043073;28;20895;-77
2022/10/14 10:47:19;;;;;;;31.00;12.98;;;12.30;99.90;;;;;;5057591;28;20063;-77
2022/10/14 10:49:55;;;;;;;24.45;12.73;;;12.30;99.90;;;;;;5044098;28;20044;-77
2022/10/14 10:52:47;;;;;;;30.00;14.80;;;12.40;99.90;;;;;;5048559;28;20040;-77
2022/10/14 10:55:38;;;;;;;29.87;11.67;;;12.40;99.90;;;;;;5036883;28;20608;-77
2022/10/14 10:58:16;;;;;;;27.60;12.50;;;12.50;99.90;;;;;;5033148;28;20638;-77
2022/10/14 11:01:15;;;;;;;26.73;13.15;;;12.50;99.90;;;;;;5009172;28;20114;-76
2022/10/14 11:04:06;;;;;;;22.40;11.35;;;12.60;99.90;;;;;;5051962;28;20033;-77
2022/10/14 11:12:58;;;;;;;21.40;10.40;;;12.70;99.90;;;;;;5051044;28;20097;-77
2022/10/14 11:15:51;;;;;;;18.55;9.88;;;12.80;99.90;;;;;;5036311;28;20052;-76
2022/10/14 11:18:50;;;;;;;16.67;8.30;;;12.80;99.90;;;;;;5049748;28;20546;-76
2022/10/14 11:21:29;;;;;;;16.58;9.45;;;12.80;99.90;;;;;;5012049;28;20057;-76
2022/10/14 11:24:17;;;;;;;18.52;9.48;;;12.80;99.90;;;;;;5051695;28;20048;-77
2022/10/14 11:27:04;;;;;;;17.23;7.95;;;12.80;99.90;;;;;;5050134;28;20067;-76
2022/10/14 11:29:38;;;;;;;16.70;8.63;;;12.80;99.90;;;;;;5031758;28;20079;-76
2022/10/14 11:32:16;;;;;;;16.83;8.55;;;12.80;99.90;;;;;;5047691;28;20037;-76
2022/10/14 11:34:47;;;;;;;15.65;9.05;;;12.80;99.90;;;;;;5038945;28;20191;-77
2022/10/14 11:37:47;;;;;;;15.13;8.50;;;12.90;99.90;;;;;;5044641;28;20052;-76
2022/10/14 11:40:12;;;;;;;15.48;9.07;;;12.90;99.90;;;;;;5054538;28;20041;-77
2022/10/14 11:42:56;;;;;;;14.88;7.15;;;12.90;99.90;;;;;;5031515;28;20076;-77
2022/10/14 11:45:39;;;;;;;13.73;8.15;;;12.90;99.90;;;;;;5048174;28;20045;-76
2022/10/14 11:48:21;;;;;;;10.38;6.55;;;12.90;99.90;;;;;;5044867;28;20033;-78
2022/10/14 11:50:52;;;;;;;11.70;7.13;;;12.90;99.90;;;;;;5058778;28;20384;-77
2022/10/14 11:53:33;;;;;;;12.48;6.07;;;12.90;99.90;;;;;;5062567;28;20427;-76
2022/10/14 11:56:09;;;;;;;13.95;7.65;;;12.80;99.90;;;;;;5022211;28;20514;-76
2022/10/14 11:58:37;;;;;;;12.63;7.32;;;12.90;99.90;;;;;;5056463;28;20052;-77
2022/10/14 12:01:03;;;;;;;10.88;7.13;;;12.90;99.90;;;;;;5027854;28;20060;-77
2022/10/14 12:03:35;;;;;;;11.80;7.05;;;12.90;99.90;;;;;;5041419;28;20048;-77
2022/10/14 12:06:29;;;;;;;9.40;5.57;;;12.90;99.90;;;;;;5034220;28;20376;-76
2022/10/14 12:09:22;;;;;;;12.23;6.85;;;12.90;99.90;;;;;;5027917;28;20037;-76
2022/10/14 12:11:56;;;;;;;10.60;6.15;;;13.00;99.90;;;;;;5054086;28;20036;-77
2022/10/14 12:14:28;;;;;;;10.80;5.60;;;13.00;99.90;;;;;;5048882;28;20052;-77
2022/10/14 12:16:56;;;;;;;9.50;6.18;;;13.00;99.90;;;;;;5058258;28;20117;-80
2022/10/14 12:19:25;;;;;;;7.88;5.78;;;13.00;99.90;;;;;;5054708;28;20040;-77
2022/10/14 12:22:03;;;;;;;10.27;6.28;;;13.00;99.90;;;;;;5047098;28;20055;-77
2022/10/14 12:24:35;;;;;;;8.25;5.28;;;13.00;99.90;;;;;;5038196;28;20080;-75
2022/10/14 12:27:03;;;;;;;;;;;13.00;99.90;;;;;;5033121;28;20506;-74
2022/10/14 12:29:34;;;;;;;9.50;5.50;;;13.00;99.90;;;;;;5050061;28;20422;-73
2022/10/14 12:32:03;;;;;;;10.25;6.22;;;13.00;99.90;;;;;;5036603;28;20124;-73
2022/10/14 12:34:33;;;;;;;7.38;5.28;;;13.00;99.90;;;;;;5050312;28;20502;-74
2022/10/14 12:37:21;;;;;;;11.68;6.00;;;13.00;99.90;;;;;;5033271;28;20045;-75
2022/10/14 12:39:47;;;;;;;10.18;6.30;;;13.00;99.90;;;;;;5027159;28;20049;-74
2022/10/14 12:42:14;;;;;;;9.93;5.60;;;13.00;99.90;;;;;;5052093;28;20037;-73
2022/10/14 12:44:55;;;;;;;9.40;6.32;;;13.00;99.90;;;;;;5058610;28;20091;-77
2022/10/14 12:47:32;;;;;;;10.20;7.13;;;13.00;99.90;;;;;;5058255;28;20557;-75
2022/10/14 12:50:01;;;;;;;13.05;7.20;;;13.00;99.90;;;;;;5031650;28;20049;-74
2022/10/14 12:52:37;;;;;;;7.88;6.00;;;13.10;99.90;;;;;;5055547;28;20056;-75
2022/10/14 12:55:17;;;;;;;7.70;5.57;;;13.10;99.90;;;;;;5034459;28;20048;-75
2022/10/14 12:57:43;;;;;;;9.15;5.78;;;13.10;99.90;;;;;;5032748;28;20052;-74
2022/10/14 13:00:21;;;;;;;10.38;6.72;;;13.10;99.90;;;;;;5055509;28;20040;-74
2022/10/14 13:02:53;;;;;;;11.45;7.13;;;13.10;99.90;;;;;;5046212;28;20098;-74
2022/10/14 13:05:24;;;;;;;10.20;7.18;;;13.10;99.90;;;;;;5052779;28;20041;-74